sensor_id;sensor_type;location;lat;lon;timestamp;P1;durP1;ratioP1;P2;durP2;ratioP2
23684;SDS011;12020;51.384;6.908;2022-11-14T00:00:10;8.80;;;7.25;;
23684;SDS011;12020;51.384;6.908;2022-11-14T00:02:37;8.93;;;7.78;;
23684;SDS011;12020;51.384;6.908;2022-11-14T00:05:04;8.32;;;7.43;;
23684;SDS011;12020;51.384;6.908;2022-11-14T00:07:31;8.13;;;7.32;;
23684;SDS011;12020;51.384;6.908;2022-11-14T00:09:57;8.40;;;7.60;;
23684;SDS011;12020;51.384;6.908;2022-11-14T00:12:23;8.25;;;7.28;;
23684;SDS011;12020;51.384;6.908;2022-11-14T00:14:49;8.52;;;7.60;;
23684;SDS011;12020;51.384;6.908;2022-11-14T00:17:15;8.47;;;7.57;;
23684;SDS011;12020;51.384;6.908;2022-11-14T00:19:42;9.70;;;7.70;;
23684;SDS011;12020;51.384;6.908;2022-11-14T00:22:08;8.70;;;7.70;;
23684;SDS011;12020;51.384;6.908;2022-11-14T00:24:33;9.05;;;8.00;;
23684;SDS011;12020;51.384;6.908;2022-11-14T00:26:59;8.35;;;7.53;;
23684;SDS011;12020;51.384;6.908;2022-11-14T00:29:25;8.65;;;7.57;;
23684;SDS011;12020;51.384;6.908;2022-11-14T00:31:51;8.60;;;7.70;;
23684;SDS011;12020;51.384;6.908;2022-11-14T00:34:17;8.65;;;7.70;;
23684;SDS011;12020;51.384;6.908;2022-11-14T00:36:44;9.20;;;7.68;;
23684;SDS011;12020;51.384;6.908;2022-11-14T00:39:11;8.35;;;7.47;;
23684;SDS011;12020;51.384;6.908;2022-11-14T00:44:06;8.57;;;7.77;;
23684;SDS011;12020;51.384;6.908;2022-11-14T00:46:34;9.95;;;8.38;;
23684;SDS011;12020;51.384;6.908;2022-11-14T00:49:00;9.00;;;8.10;;
23684;SDS011;12020;51.384;6.908;2022-11-14T00:51:26;9.45;;;8.40;;
23684;SDS011;12020;51.384;6.908;2022-11-14T00:53:51;9.02;;;7.88;;
23684;SDS011;12020;51.384;6.908;2022-11-14T00:56:18;9.70;;;8.43;;
23684;SDS011;12020;51.384;6.908;2022-11-14T00:58:45;11.32;;;8.63;;
23684;SDS011;12020;51.384;6.908;2022-11-14T01:01:11;10.03;;;8.97;;
23684;SDS011;12020;51.384;6.908;2022-11-14T01:03:38;9.98;;;8.85;;
23684;SDS011;12020;51.384;6.908;2022-11-14T01:06:04;9.93;;;8.63;;
23684;SDS011;12020;51.384;6.908;2022-11-14T01:08:32;9.30;;;8.30;;
23684;SDS011;12020;51.384;6.908;2022-11-14T01:10:58;10.27;;;8.73;;
23684;SDS011;12020;51.384;6.908;2022-11-14T01:13:25;8.60;;;7.70;;
23684;SDS011;12020;51.384;6.908;2022-11-14T01:15:58;9.50;;;8.32;;
23684;SDS011;12020;51.384;6.908;2022-11-14T01:18:26;8.95;;;8.10;;
23684;SDS011;12020;51.384;6.908;2022-11-14T01:20:52;9.63;;;8.30;;
23684;SDS011;12020;51.384;6.908;2022-11-14T01:23:18;9.30;;;8.40;;
23684;SDS011;12020;51.384;6.908;2022-11-14T01:25:44;9.90;;;8.57;;
23684;SDS011;12020;51.384;6.908;2022-11-14T01:28:11;8.50;;;7.70;;
23684;SDS011;12020;51.384;6.908;2022-11-14T01:30:39;11.00;;;8.63;;
23684;SDS011;12020;51.384;6.908;2022-11-14T01:33:06;9.18;;;8.27;;
23684;SDS011;12020;51.384;6.908;2022-11-14T01:35:33;9.55;;;8.23;;
23684;SDS011;12020;51.384;6.908;2022-11-14T01:38:01;9.00;;;8.10;;
23684;SDS011;12020;51.384;6.908;2022-11-14T01:40:29;9.25;;;8.32;;
23684;SDS011;12020;51.384;6.908;2022-11-14T01:48:21;9.37;;;8.13;;
23684;SDS011;12020;51.384;6.908;2022-11-14T01:50:55;9.10;;;8.20;;
23684;SDS011;12020;51.384;6.908;2022-11-14T01:53:49;10.25;;;9.23;;
23684;SDS011;12020;51.384;6.908;2022-11-14T01:56:21;8.73;;;7.82;;
23684;SDS011;12020;51.384;6.908;2022-11-14T01:59:37;11.00;;;8.52;;
23684;SDS011;12020;51.384;6.908;2022-11-14T02:01:48;9.98;;;8.68;;
23684;SDS011;12020;51.384;6.908;2022-11-14T02:04:20;9.68;;;8.68;;
23684;SDS011;12020;51.384;6.908;2022-11-14T02:06:49;10.57;;;8.75;;
23684;SDS011;12020;51.384;6.908;2022-11-14T02:09:18;10.20;;;9.00;;
23684;SDS011;12020;51.384;6.908;2022-11-14T02:11:44;9.85;;;8.63;;
23684;SDS011;12020;51.384;6.908;2022-11-14T02:14:11;10.45;;;9.10;;
23684;SDS011;12020;51.384;6.908;2022-11-14T02:16:38;9.95;;;8.95;;
23684;SDS011;12020;51.384;6.908;2022-11-14T02:19:05;9.82;;;8.80;;
23684;SDS011;12020;51.384;6.908;2022-11-14T02:21:31;8.87;;;7.97;;
23684;SDS011;12020;51.384;6.908;2022-11-14T02:23:58;9.27;;;8.18;;
23684;SDS011;12020;51.384;6.908;2022-11-14T02:26:26;9.68;;;8.68;;
23684;SDS011;12020;51.384;6.908;2022-11-14T02:28:52;9.43;;;8.43;;
23684;SDS011;12020;51.384;6.908;2022-11-14T02:31:20;9.50;;;8.50;;
23684;SDS011;12020;51.384;6.908;2022-11-14T02:33:46;9.85;;;8.50;;
23684;SDS011;12020;51.384;6.908;2022-11-14T02:36:12;10.48;;;8.95;;
23684;SDS011;12020;51.384;6.908;2022-11-14T02:38:38;10.67;;;9.17;;
23684;SDS011;12020;51.384;6.908;2022-11-14T02:41:04;8.80;;;8.00;;
23684;SDS011;12020;51.384;6.908;2022-11-14T02:43:30;9.32;;;8.30;;
23684;SDS011;12020;51.384;6.908;2022-11-14T02:45:57;9.40;;;7.77;;
23684;SDS011;12020;51.384;6.908;2022-11-14T02:48:27;9.52;;;8.52;;
23684;SDS011;12020;51.384;6.908;2022-11-14T02:50:53;9.40;;;8.43;;
23684;SDS011;12020;51.384;6.908;2022-11-14T02:53:18;9.87;;;8.93;;
23684;SDS011;12020;51.384;6.908;2022-11-14T02:55:44;9.60;;;8.40;;
23684;SDS011;12020;51.384;6.908;2022-11-14T02:58:10;9.52;;;8.50;;
23684;SDS011;12020;51.384;6.908;2022-11-14T03:00:36;9.88;;;8.88;;
23684;SDS011;12020;51.384;6.908;2022-11-14T03:03:02;11.70;;;8.67;;
23684;SDS011;12020;51.384;6.908;2022-11-14T03:05:28;9.43;;;8.48;;
23684;SDS011;12020;51.384;6.908;2022-11-14T03:07:54;9.05;;;8.15;;
23684;SDS011;12020;51.384;6.908;2022-11-14T03:10:21;9.48;;;8.00;;
23684;SDS011;12020;51.384;6.908;2022-11-14T03:12:52;9.63;;;7.90;;
23684;SDS011;12020;51.384;6.908;2022-11-14T03:15:22;8.63;;;7.72;;
23684;SDS011;12020;51.384;6.908;2022-11-14T03:17:49;9.18;;;8.30;;
23684;SDS011;12020;51.384;6.908;2022-11-14T03:20:16;9.02;;;7.65;;
23684;SDS011;12020;51.384;6.908;2022-11-14T03:22:42;8.75;;;7.85;;
23684;SDS011;12020;51.384;6.908;2022-11-14T03:25:08;9.33;;;7.90;;
23684;SDS011;12020;51.384;6.908;2022-11-14T03:27:34;10.67;;;8.17;;
23684;SDS011;12020;51.384;6.908;2022-11-14T03:29:59;9.95;;;8.55;;
23684;SDS011;12020;51.384;6.908;2022-11-14T03:32:25;9.25;;;8.25;;
23684;SDS011;12020;51.384;6.908;2022-11-14T03:34:52;9.68;;;8.70;;
23684;SDS011;12020;51.384;6.908;2022-11-14T03:37:19;9.60;;;8.23;;
23684;SDS011;12020;51.384;6.908;2022-11-14T03:39:47;9.48;;;8.48;;
23684;SDS011;12020;51.384;6.908;2022-11-14T03:42:13;8.63;;;7.75;;
23684;SDS011;12020;51.384;6.908;2022-11-14T03:44:39;9.10;;;8.20;;
23684;SDS011;12020;51.384;6.908;2022-11-14T03:47:05;9.60;;;8.60;;
23684;SDS011;12020;51.384;6.908;2022-11-14T03:49:31;9.48;;;7.38;;
23684;SDS011;12020;51.384;6.908;2022-11-14T03:51:57;8.47;;;7.67;;
23684;SDS011;12020;51.384;6.908;2022-11-14T03:54:24;8.50;;;7.68;;
23684;SDS011;12020;51.384;6.908;2022-11-14T03:56:49;8.15;;;7.43;;
23684;SDS011;12020;51.384;6.908;2022-11-14T03:59:15;9.15;;;8.20;;
23684;SDS011;12020;51.384;6.908;2022-11-14T04:01:42;8.40;;;7.60;;
23684;SDS011;12020;51.384;6.908;2022-11-14T04:04:10;8.07;;;7.27;;
23684;SDS011;12020;51.384;6.908;2022-11-14T04:06:36;8.00;;;7.20;;
23684;SDS011;12020;51.384;6.908;2022-11-14T04:09:02;8.23;;;7.33;;
23684;SDS011;12020;51.384;6.908;2022-11-14T04:11:29;8.43;;;7.55;;
23684;SDS011;12020;51.384;6.908;2022-11-14T04:13:55;8.63;;;7.75;;
23684;SDS011;12020;51.384;6.908;2022-11-14T04:16:22;8.77;;;7.85;;
23684;SDS011;12020;51.384;6.908;2022-11-14T04:25:10;8.90;;;8.00;;
23684;SDS011;12020;51.384;6.908;2022-11-14T04:27:36;9.88;;;8.25;;
23684;SDS011;12020;51.384;6.908;2022-11-14T04:30:03;8.68;;;7.85;;
23684;SDS011;12020;51.384;6.908;2022-11-14T04:32:30;8.68;;;7.78;;
23684;SDS011;12020;51.384;6.908;2022-11-14T04:34:56;8.75;;;7.85;;
23684;SDS011;12020;51.384;6.908;2022-11-14T04:37:22;8.43;;;7.53;;
23684;SDS011;12020;51.384;6.908;2022-11-14T04:39:48;8.60;;;7.70;;
23684;SDS011;12020;51.384;6.908;2022-11-14T04:42:14;8.48;;;7.68;;
23684;SDS011;12020;51.384;6.908;2022-11-14T04:44:40;9.13;;;8.13;;
23684;SDS011;12020;51.384;6.908;2022-11-14T04:47:09;8.50;;;7.60;;
23684;SDS011;12020;51.384;6.908;2022-11-14T04:55:10;8.55;;;7.70;;
23684;SDS011;12020;51.384;6.908;2022-11-14T04:57:38;8.95;;;7.90;;
23684;SDS011;12020;51.384;6.908;2022-11-14T05:00:04;9.18;;;8.27;;
23684;SDS011;12020;51.384;6.908;2022-11-14T05:02:31;9.10;;;8.10;;
23684;SDS011;12020;51.384;6.908;2022-11-14T05:04:58;9.68;;;8.48;;
23684;SDS011;12020;51.384;6.908;2022-11-14T05:07:24;9.00;;;8.10;;
23684;SDS011;12020;51.384;6.908;2022-11-14T05:09:50;9.02;;;8.13;;
23684;SDS011;12020;51.384;6.908;2022-11-14T05:12:16;9.00;;;8.10;;
23684;SDS011;12020;51.384;6.908;2022-11-14T05:14:42;9.17;;;8.27;;
23684;SDS011;12020;51.384;6.908;2022-11-14T05:17:07;8.97;;;8.10;;
23684;SDS011;12020;51.384;6.908;2022-11-14T05:19:33;9.33;;;8.43;;
23684;SDS011;12020;51.384;6.908;2022-11-14T05:21:59;8.67;;;7.77;;
23684;SDS011;12020;51.384;6.908;2022-11-14T05:24:25;9.13;;;8.18;;
23684;SDS011;12020;51.384;6.908;2022-11-14T05:26:52;8.57;;;7.60;;
23684;SDS011;12020;51.384;6.908;2022-11-14T05:29:18;9.67;;;8.67;;
23684;SDS011;12020;51.384;6.908;2022-11-14T05:31:44;9.32;;;8.10;;
23684;SDS011;12020;51.384;6.908;2022-11-14T05:34:10;9.57;;;8.43;;
23684;SDS011;12020;51.384;6.908;2022-11-14T05:36:36;9.57;;;8.57;;
23684;SDS011;12020;51.384;6.908;2022-11-14T05:41:49;9.73;;;8.75;;
23684;SDS011;12020;51.384;6.908;2022-11-14T05:44:15;9.07;;;8.13;;
23684;SDS011;12020;51.384;6.908;2022-11-14T05:46:41;8.90;;;7.70;;
23684;SDS011;12020;51.384;6.908;2022-11-14T05:49:07;8.85;;;7.95;;
23684;SDS011;12020;51.384;6.908;2022-11-14T05:51:34;9.07;;;8.18;;
23684;SDS011;12020;51.384;6.908;2022-11-14T05:54:07;8.98;;;8.00;;
23684;SDS011;12020;51.384;6.908;2022-11-14T05:59:19;8.68;;;7.78;;
23684;SDS011;12020;51.384;6.908;2022-11-14T06:01:49;9.15;;;8.15;;
23684;SDS011;12020;51.384;6.908;2022-11-14T06:04:18;9.00;;;8.10;;
23684;SDS011;12020;51.384;6.908;2022-11-14T06:06:50;8.80;;;7.90;;
23684;SDS011;12020;51.384;6.908;2022-11-14T06:09:20;8.98;;;8.07;;
23684;SDS011;12020;51.384;6.908;2022-11-14T06:14:19;8.43;;;7.53;;
23684;SDS011;12020;51.384;6.908;2022-11-14T06:16:55;7.95;;;7.15;;
23684;SDS011;12020;51.384;6.908;2022-11-14T06:19:21;8.48;;;7.38;;
23684;SDS011;12020;51.384;6.908;2022-11-14T06:21:48;8.30;;;7.50;;
23684;SDS011;12020;51.384;6.908;2022-11-14T06:24:13;9.20;;;8.30;;
23684;SDS011;12020;51.384;6.908;2022-11-14T06:26:40;8.63;;;7.78;;
23684;SDS011;12020;51.384;6.908;2022-11-14T06:29:08;8.60;;;7.70;;
23684;SDS011;12020;51.384;6.908;2022-11-14T06:31:35;8.23;;;7.43;;
23684;SDS011;12020;51.384;6.908;2022-11-14T06:34:09;8.00;;;7.20;;
23684;SDS011;12020;51.384;6.908;2022-11-14T06:36:51;7.85;;;7.05;;
23684;SDS011;12020;51.384;6.908;2022-11-14T06:39:21;8.90;;;8.00;;
23684;SDS011;12020;51.384;6.908;2022-11-14T06:42:00;8.02;;;7.22;;
23684;SDS011;12020;51.384;6.908;2022-11-14T06:44:36;10.07;;;7.90;;
23684;SDS011;12020;51.384;6.908;2022-11-14T06:47:04;9.00;;;7.95;;
23684;SDS011;12020;51.384;6.908;2022-11-14T06:49:49;9.30;;;8.35;;
23684;SDS011;12020;51.384;6.908;2022-11-14T06:52:14;9.47;;;7.60;;
23684;SDS011;12020;51.384;6.908;2022-11-14T06:54:43;8.70;;;7.72;;
23684;SDS011;12020;51.384;6.908;2022-11-14T06:57:18;8.20;;;7.40;;
23684;SDS011;12020;51.384;6.908;2022-11-14T06:59:46;11.77;;;9.63;;
23684;SDS011;12020;51.384;6.908;2022-11-14T07:02:18;9.83;;;8.80;;
23684;SDS011;12020;51.384;6.908;2022-11-14T07:04:47;9.10;;;8.20;;
23684;SDS011;12020;51.384;6.908;2022-11-14T07:07:13;9.50;;;8.40;;
23684;SDS011;12020;51.384;6.908;2022-11-14T07:12:25;7.37;;;6.60;;
23684;SDS011;12020;51.384;6.908;2022-11-14T07:14:54;12.63;;;7.30;;
23684;SDS011;12020;51.384;6.908;2022-11-14T07:17:34;10.57;;;6.93;;
23684;SDS011;12020;51.384;6.908;2022-11-14T07:20:05;9.17;;;6.97;;
23684;SDS011;12020;51.384;6.908;2022-11-14T07:22:33;9.20;;;7.13;;
23684;SDS011;12020;51.384;6.908;2022-11-14T07:24:58;9.83;;;7.83;;
23684;SDS011;12020;51.384;6.908;2022-11-14T07:27:26;10.13;;;7.40;;
23684;SDS011;12020;51.384;6.908;2022-11-14T07:29:52;9.43;;;7.23;;
23684;SDS011;12020;51.384;6.908;2022-11-14T07:32:18;8.57;;;7.37;;
23684;SDS011;12020;51.384;6.908;2022-11-14T07:34:53;10.67;;;7.60;;
23684;SDS011;12020;51.384;6.908;2022-11-14T07:37:30;10.63;;;7.30;;
23684;SDS011;12020;51.384;6.908;2022-11-14T07:42:43;10.20;;;7.67;;
23684;SDS011;12020;51.384;6.908;2022-11-14T11:39:37;11.03;;;8.27;;
23684;SDS011;12020;51.384;6.908;2022-11-14T11:44:42;15.23;;;8.43;;
23684;SDS011;12020;51.384;6.908;2022-11-14T11:47:12;12.10;;;9.23;;
23684;SDS011;12020;51.384;6.908;2022-11-14T11:49:43;12.13;;;9.80;;
23684;SDS011;12020;51.384;6.908;2022-11-14T11:55:17;13.57;;;9.60;;
23684;SDS011;12020;51.384;6.908;2022-11-14T11:57:54;13.27;;;11.15;;
23684;SDS011;12020;51.384;6.908;2022-11-14T12:00:36;13.38;;;11.95;;
23684;SDS011;12020;51.384;6.908;2022-11-14T12:03:04;13.23;;;11.57;;
23684;SDS011;12020;51.384;6.908;2022-11-14T12:11:05;16.20;;;10.90;;
23684;SDS011;12020;51.384;6.908;2022-11-14T12:13:52;13.27;;;10.03;;
23684;SDS011;12020;51.384;6.908;2022-11-14T12:28:34;14.87;;;10.80;;
23684;SDS011;12020;51.384;6.908;2022-11-14T12:31:27;13.40;;;10.00;;
23684;SDS011;12020;51.384;6.908;2022-11-14T12:33:59;14.07;;;10.23;;
23684;SDS011;12020;51.384;6.908;2022-11-14T12:39:26;12.75;;;11.15;;
23684;SDS011;12020;51.384;6.908;2022-11-14T12:44:52;12.02;;;10.05;;
23684;SDS011;12020;51.384;6.908;2022-11-14T12:47:37;11.00;;;9.88;;
23684;SDS011;12020;51.384;6.908;2022-11-14T12:50:44;10.60;;;9.50;;
23684;SDS011;12020;51.384;6.908;2022-11-14T12:56:18;10.85;;;9.65;;
23684;SDS011;12020;51.384;6.908;2022-11-14T13:12:31;10.63;;;9.55;;
23684;SDS011;12020;51.384;6.908;2022-11-14T13:16:03;10.23;;;9.13;;
23684;SDS011;12020;51.384;6.908;2022-11-14T13:21:35;11.13;;;9.98;;
23684;SDS011;12020;51.384;6.908;2022-11-14T13:24:12;10.50;;;9.40;;
23684;SDS011;12020;51.384;6.908;2022-11-14T13:26:46;10.30;;;9.18;;
23684;SDS011;12020;51.384;6.908;2022-11-14T13:29:45;10.25;;;9.10;;
23684;SDS011;12020;51.384;6.908;2022-11-14T13:32:23;10.73;;;9.48;;
23684;SDS011;12020;51.384;6.908;2022-11-14T13:35:20;10.77;;;9.68;;
23684;SDS011;12020;51.384;6.908;2022-11-14T13:52:02;15.27;;;12.40;;
23684;SDS011;12020;51.384;6.908;2022-11-14T13:54:28;14.57;;;12.87;;
23684;SDS011;12020;51.384;6.908;2022-11-14T14:00:06;14.98;;;13.30;;
23684;SDS011;12020;51.384;6.908;2022-11-14T18:32:11;12.80;;;9.37;;
23684;SDS011;12020;51.384;6.908;2022-11-14T18:34:55;13.23;;;9.77;;
23684;SDS011;12020;51.384;6.908;2022-11-14T18:37:20;11.87;;;9.00;;
23684;SDS011;12020;51.384;6.908;2022-11-14T18:39:47;12.93;;;10.37;;
23684;SDS011;12020;51.384;6.908;2022-11-14T18:42:13;15.43;;;10.70;;
23684;SDS011;12020;51.384;6.908;2022-11-14T18:44:39;13.13;;;10.83;;
23684;SDS011;12020;51.384;6.908;2022-11-14T18:47:04;13.40;;;9.80;;
23684;SDS011;12020;51.384;6.908;2022-11-14T18:49:30;12.43;;;10.00;;
23684;SDS011;12020;51.384;6.908;2022-11-14T18:51:56;12.97;;;10.00;;
23684;SDS011;12020;51.384;6.908;2022-11-14T18:54:22;12.53;;;10.30;;
23684;SDS011;12020;51.384;6.908;2022-11-14T18:56:48;13.37;;;10.63;;
23684;SDS011;12020;51.384;6.908;2022-11-14T18:59:15;14.30;;;9.77;;
23684;SDS011;12020;51.384;6.908;2022-11-14T19:01:41;12.67;;;10.50;;
23684;SDS011;12020;51.384;6.908;2022-11-14T19:04:08;13.23;;;10.30;;
23684;SDS011;12020;51.384;6.908;2022-11-14T19:06:36;14.93;;;11.00;;
23684;SDS011;12020;51.384;6.908;2022-11-14T19:09:05;13.57;;;11.00;;
23684;SDS011;12020;51.384;6.908;2022-11-14T19:11:34;12.47;;;10.70;;
23684;SDS011;12020;51.384;6.908;2022-11-14T19:14:19;14.40;;;10.43;;
23684;SDS011;12020;51.384;6.908;2022-11-14T19:16:45;12.97;;;11.23;;
23684;SDS011;12020;51.384;6.908;2022-11-14T19:19:11;13.97;;;11.07;;
23684;SDS011;12020;51.384;6.908;2022-11-14T19:24:07;14.77;;;12.23;;
23684;SDS011;12020;51.384;6.908;2022-11-14T19:29:03;15.07;;;13.07;;
23684;SDS011;12020;51.384;6.908;2022-11-14T19:31:30;13.75;;;11.98;;
23684;SDS011;12020;51.384;6.908;2022-11-14T19:33:57;13.50;;;12.00;;
23684;SDS011;12020;51.384;6.908;2022-11-14T19:36:24;13.60;;;12.20;;
23684;SDS011;12020;51.384;6.908;2022-11-14T19:38:53;13.10;;;11.80;;
23684;SDS011;12020;51.384;6.908;2022-11-14T19:41:20;13.77;;;12.30;;
23684;SDS011;12020;51.384;6.908;2022-11-14T19:43:49;14.00;;;12.60;;
23684;SDS011;12020;51.384;6.908;2022-11-14T19:46:14;14.27;;;12.88;;
23684;SDS011;12020;51.384;6.908;2022-11-14T19:48:46;14.00;;;12.50;;
23684;SDS011;12020;51.384;6.908;2022-11-14T19:51:14;13.30;;;11.90;;
23684;SDS011;12020;51.384;6.908;2022-11-14T19:53:42;13.88;;;12.48;;
23684;SDS011;12020;51.384;6.908;2022-11-14T19:56:16;13.85;;;12.43;;
23684;SDS011;12020;51.384;6.908;2022-11-14T19:58:43;13.40;;;12.00;;
23684;SDS011;12020;51.384;6.908;2022-11-14T20:01:15;13.63;;;12.32;;
23684;SDS011;12020;51.384;6.908;2022-11-14T20:03:43;13.80;;;12.40;;
23684;SDS011;12020;51.384;6.908;2022-11-14T20:06:18;13.65;;;12.25;;
23684;SDS011;12020;51.384;6.908;2022-11-14T20:08:47;13.57;;;12.18;;
23684;SDS011;12020;51.384;6.908;2022-11-14T20:11:14;14.18;;;12.77;;
23684;SDS011;12020;51.384;6.908;2022-11-14T20:18:39;14.02;;;12.52;;
23684;SDS011;12020;51.384;6.908;2022-11-14T20:21:12;13.35;;;12.05;;
23684;SDS011;12020;51.384;6.908;2022-11-14T20:26:48;14.10;;;12.68;;
23684;SDS011;12020;51.384;6.908;2022-11-14T20:29:14;12.97;;;11.70;;
23684;SDS011;12020;51.384;6.908;2022-11-14T20:31:40;13.50;;;12.10;;
23684;SDS011;12020;51.384;6.908;2022-11-14T20:34:06;13.15;;;11.85;;
23684;SDS011;12020;51.384;6.908;2022-11-14T20:36:33;13.18;;;11.88;;
23684;SDS011;12020;51.384;6.908;2022-11-14T20:38:59;13.40;;;12.00;;
23684;SDS011;12020;51.384;6.908;2022-11-14T20:41:25;13.00;;;11.70;;
23684;SDS011;12020;51.384;6.908;2022-11-14T20:43:51;13.20;;;11.80;;
23684;SDS011;12020;51.384;6.908;2022-11-14T20:46:18;13.32;;;12.02;;
23684;SDS011;12020;51.384;6.908;2022-11-14T20:48:47;12.35;;;11.10;;
23684;SDS011;12020;51.384;6.908;2022-11-14T20:51:18;12.67;;;11.37;;
23684;SDS011;12020;51.384;6.908;2022-11-14T20:53:48;13.20;;;11.90;;
23684;SDS011;12020;51.384;6.908;2022-11-14T20:56:15;12.52;;;11.25;;
23684;SDS011;12020;51.384;6.908;2022-11-14T20:58:42;13.00;;;11.23;;
23684;SDS011;12020;51.384;6.908;2022-11-14T21:01:09;12.68;;;11.38;;
23684;SDS011;12020;51.384;6.908;2022-11-14T21:03:35;13.05;;;11.73;;
23684;SDS011;12020;51.384;6.908;2022-11-14T21:06:02;13.13;;;11.77;;
23684;SDS011;12020;51.384;6.908;2022-11-14T21:08:29;12.57;;;11.33;;
23684;SDS011;12020;51.384;6.908;2022-11-14T21:11:01;13.02;;;11.73;;
23684;SDS011;12020;51.384;6.908;2022-11-14T21:13:29;13.02;;;11.68;;
23684;SDS011;12020;51.384;6.908;2022-11-14T21:16:17;13.20;;;11.80;;
23684;SDS011;12020;51.384;6.908;2022-11-14T21:18:43;13.52;;;12.13;;
23684;SDS011;12020;51.384;6.908;2022-11-14T21:21:13;13.27;;;11.88;;
23684;SDS011;12020;51.384;6.908;2022-11-14T21:23:44;13.27;;;11.88;;
23684;SDS011;12020;51.384;6.908;2022-11-14T21:26:12;12.45;;;11.10;;
23684;SDS011;12020;51.384;6.908;2022-11-14T21:28:41;12.65;;;11.35;;
23684;SDS011;12020;51.384;6.908;2022-11-14T21:31:23;12.20;;;10.90;;
23684;SDS011;12020;51.384;6.908;2022-11-14T21:33:52;12.23;;;11.02;;
23684;SDS011;12020;51.384;6.908;2022-11-14T21:36:21;12.88;;;11.57;;
23684;SDS011;12020;51.384;6.908;2022-11-14T21:38:46;12.20;;;11.00;;
23684;SDS011;12020;51.384;6.908;2022-11-14T21:41:14;11.77;;;10.53;;
23684;SDS011;12020;51.384;6.908;2022-11-14T21:43:42;12.93;;;11.60;;
23684;SDS011;12020;51.384;6.908;2022-11-14T21:46:10;11.52;;;10.43;;
23684;SDS011;12020;51.384;6.908;2022-11-14T21:48:38;12.93;;;11.38;;
23684;SDS011;12020;51.384;6.908;2022-11-14T21:53:37;12.50;;;11.20;;
23684;SDS011;12020;51.384;6.908;2022-11-14T21:58:32;12.38;;;11.15;;
23684;SDS011;12020;51.384;6.908;2022-11-14T22:01:11;13.45;;;11.30;;
23684;SDS011;12020;51.384;6.908;2022-11-14T22:04:05;12.57;;;11.27;;
23684;SDS011;12020;51.384;6.908;2022-11-14T22:06:38;12.93;;;11.43;;
23684;SDS011;12020;51.384;6.908;2022-11-14T22:09:08;12.77;;;11.47;;
23684;SDS011;12020;51.384;6.908;2022-11-14T22:11:37;13.30;;;10.80;;
23684;SDS011;12020;51.384;6.908;2022-11-14T22:14:03;12.50;;;11.20;;
23684;SDS011;12020;51.384;6.908;2022-11-14T22:16:29;12.68;;;11.38;;
23684;SDS011;12020;51.384;6.908;2022-11-14T22:18:55;12.80;;;11.20;;
23684;SDS011;12020;51.384;6.908;2022-11-14T22:21:21;11.88;;;10.68;;
23684;SDS011;12020;51.384;6.908;2022-11-14T22:23:47;11.97;;;10.77;;
23684;SDS011;12020;51.384;6.908;2022-11-14T22:26:13;12.43;;;10.67;;
23684;SDS011;12020;51.384;6.908;2022-11-14T22:28:47;11.93;;;10.73;;
23684;SDS011;12020;51.384;6.908;2022-11-14T22:31:17;11.65;;;10.20;;
23684;SDS011;12020;51.384;6.908;2022-11-14T22:33:45;11.90;;;10.70;;
23684;SDS011;12020;51.384;6.908;2022-11-14T22:36:13;12.27;;;10.40;;
23684;SDS011;12020;51.384;6.908;2022-11-14T22:38:41;11.25;;;9.95;;
23684;SDS011;12020;51.384;6.908;2022-11-14T22:41:17;11.00;;;9.88;;
23684;SDS011;12020;51.384;6.908;2022-11-14T22:43:47;11.33;;;10.13;;
23684;SDS011;12020;51.384;6.908;2022-11-14T22:46:18;11.45;;;10.25;;
23684;SDS011;12020;51.384;6.908;2022-11-14T22:48:44;12.75;;;10.75;;
23684;SDS011;12020;51.384;6.908;2022-11-14T22:53:47;12.05;;;10.90;;
23684;SDS011;12020;51.384;6.908;2022-11-14T22:56:16;12.00;;;10.70;;
23684;SDS011;12020;51.384;6.908;2022-11-14T22:58:43;11.65;;;10.27;;
23684;SDS011;12020;51.384;6.908;2022-11-14T23:01:11;12.50;;;10.25;;
23684;SDS011;12020;51.384;6.908;2022-11-14T23:03:42;11.30;;;9.90;;
23684;SDS011;12020;51.384;6.908;2022-11-14T23:06:08;10.70;;;9.60;;
23684;SDS011;12020;51.384;6.908;2022-11-14T23:08:37;10.68;;;9.57;;
23684;SDS011;12020;51.384;6.908;2022-11-14T23:11:06;10.88;;;9.73;;
23684;SDS011;12020;51.384;6.908;2022-11-14T23:13:38;11.13;;;9.95;;
23684;SDS011;12020;51.384;6.908;2022-11-14T23:16:09;10.60;;;9.48;;
23684;SDS011;12020;51.384;6.908;2022-11-14T23:18:37;10.75;;;9.65;;
23684;SDS011;12020;51.384;6.908;2022-11-14T23:21:05;10.80;;;9.80;;
23684;SDS011;12020;51.384;6.908;2022-11-14T23:23:32;10.43;;;9.32;;
23684;SDS011;12020;51.384;6.908;2022-11-14T23:26:08;10.93;;;9.82;;
23684;SDS011;12020;51.384;6.908;2022-11-14T23:28:36;9.03;;;8.13;;
23684;SDS011;12020;51.384;6.908;2022-11-14T23:31:02;9.37;;;7.63;;
23684;SDS011;12020;51.384;6.908;2022-11-14T23:33:27;8.83;;;7.67;;
23684;SDS011;12020;51.384;6.908;2022-11-14T23:35:54;10.53;;;7.87;;
23684;SDS011;12020;51.384;6.908;2022-11-14T23:38:20;12.03;;;8.13;;
23684;SDS011;12020;51.384;6.908;2022-11-14T23:40:52;9.13;;;6.90;;
23684;SDS011;12020;51.384;6.908;2022-11-14T23:43:38;9.77;;;7.50;;
23684;SDS011;12020;51.384;6.908;2022-11-14T23:46:04;9.50;;;6.80;;
23684;SDS011;12020;51.384;6.908;2022-11-14T23:48:30;10.73;;;7.63;;
23684;SDS011;12020;51.384;6.908;2022-11-14T23:50:56;9.17;;;6.87;;
23684;SDS011;12020;51.384;6.908;2022-11-14T23:53:21;9.20;;;7.20;;
23684;SDS011;12020;51.384;6.908;2022-11-14T23:55:51;9.03;;;7.17;;
23684;SDS011;12020;51.384;6.908;2022-11-14T23:58:18;10.37;;;7.73;;
